sensor_id;sensor_type;location;lat;lon;timestamp;pressure;altitude;pressure_sealevel;temperature;humidity
78986;BME280;68384;55.750;48.746;2024-03-23T00:52:41;98882.84;;;-2.42;60.66
78986;BME280;68384;55.750;48.746;2024-03-23T00:53:42;98883.72;;;-2.42;60.57
78986;BME280;68384;55.750;48.746;2024-03-23T00:54:44;98886.34;;;-2.43;60.76
78986;BME280;68384;55.750;48.746;2024-03-23T00:55:45;98882.03;;;-2.44;60.63
78986;BME280;68384;55.750;48.746;2024-03-23T00:56:46;98885.53;;;-2.45;61.33
78986;BME280;68384;55.750;48.746;2024-03-23T00:57:47;98878.63;;;-2.46;61.16
78986;BME280;68384;55.750;48.746;2024-03-23T00:58:48;98879.50;;;-2.46;61.20
78986;BME280;68384;55.750;48.746;2024-03-23T00:59:49;98882.97;;;-2.47;61.07
78986;BME280;68384;55.750;48.746;2024-03-23T01:00:50;98876.91;;;-2.46;61.01
78986;BME280;68384;55.750;48.746;2024-03-23T01:01:51;98884.66;;;-2.46;61.02
78986;BME280;68384;55.750;48.746;2024-03-23T01:02:53;98877.78;;;-2.47;60.54
78986;BME280;68384;55.750;48.746;2024-03-23T01:03:54;98882.94;;;-2.45;60.74
78986;BME280;68384;55.750;48.746;2024-03-23T01:04:55;98873.44;;;-2.46;61.02
78986;BME280;68384;55.750;48.746;2024-03-23T01:06:00;98887.25;;;-2.46;60.95
78986;BME280;68384;55.750;48.746;2024-03-23T01:07:01;98876.81;;;-2.43;60.79
78986;BME280;68384;55.750;48.746;2024-03-23T01:08:02;98877.72;;;-2.44;61.04
78986;BME280;68384;55.750;48.746;2024-03-23T01:09:04;98875.13;;;-2.44;60.46
78986;BME280;68384;55.750;48.746;2024-03-23T01:10:05;98880.25;;;-2.42;60.60
78986;BME280;68384;55.750;48.746;2024-03-23T01:11:06;98872.50;;;-2.42;60.56
78986;BME280;68384;55.750;48.746;2024-03-23T01:12:07;98877.72;;;-2.44;60.77
78986;BME280;68384;55.750;48.746;2024-03-23T01:13:09;98871.59;;;-2.41;60.71
78986;BME280;68384;55.750;48.746;2024-03-23T01:14:10;98867.31;;;-2.42;60.67
78986;BME280;68384;55.750;48.746;2024-03-23T01:15:11;98867.31;;;-2.42;61.01
78986;BME280;68384;55.750;48.746;2024-03-23T01:16:13;98868.16;;;-2.42;60.52
78986;BME280;68384;55.750;48.746;2024-03-23T01:17:14;98874.19;;;-2.41;61.01
78986;BME280;68384;55.750;48.746;2024-03-23T01:18:15;98871.59;;;-2.41;60.60
78986;BME280;68384;55.750;48.746;2024-03-23T01:19:16;98863.81;;;-2.41;60.68
78986;BME280;68384;55.750;48.746;2024-03-23T01:20:17;98869.00;;;-2.41;61.09
78986;BME280;68384;55.750;48.746;2024-03-23T01:21:18;98866.41;;;-2.41;60.62
78986;BME280;68384;55.750;48.746;2024-03-23T01:22:20;98869.00;;;-2.41;60.50
78986;BME280;68384;55.750;48.746;2024-03-23T01:23:21;98863.84;;;-2.43;60.57
78986;BME280;68384;55.750;48.746;2024-03-23T01:24:22;98863.91;;;-2.44;60.69
78986;BME280;68384;55.750;48.746;2024-03-23T01:25:24;98855.22;;;-2.43;60.75
78986;BME280;68384;55.750;48.746;2024-03-23T01:26:25;98857.84;;;-2.45;60.76
78986;BME280;68384;55.750;48.746;2024-03-23T01:27:26;98860.44;;;-2.45;60.88
78986;BME280;68384;55.750;48.746;2024-03-23T01:28:27;98854.41;;;-2.45;60.59
78986;BME280;68384;55.750;48.746;2024-03-23T01:29:29;98849.22;;;-2.45;60.94
78986;BME280;68384;55.750;48.746;2024-03-23T01:30:30;98849.28;;;-2.47;60.81
78986;BME280;68384;55.750;48.746;2024-03-23T01:31:31;98847.56;;;-2.48;61.16
78986;BME280;68384;55.750;48.746;2024-03-23T01:32:33;98849.31;;;-2.48;60.97
78986;BME280;68384;55.750;48.746;2024-03-23T01:33:34;98850.22;;;-2.49;61.16
78986;BME280;68384;55.750;48.746;2024-03-23T01:34:35;98851.13;;;-2.50;61.24
78986;BME280;68384;55.750;48.746;2024-03-23T01:35:36;98843.34;;;-2.50;61.21
78986;BME280;68384;55.750;48.746;2024-03-23T01:36:37;98845.97;;;-2.52;60.82
78986;BME280;68384;55.750;48.746;2024-03-23T01:37:38;98845.97;;;-2.52;60.75
78986;BME280;68384;55.750;48.746;2024-03-23T01:38:40;98846.91;;;-2.54;60.95
78986;BME280;68384;55.750;48.746;2024-03-23T01:39:41;98840.84;;;-2.55;60.92
78986;BME280;68384;55.750;48.746;2024-03-23T01:40:42;98850.38;;;-2.55;60.57
78986;BME280;68384;55.750;48.746;2024-03-23T01:41:43;98851.19;;;-2.53;61.34
78986;BME280;68384;55.750;48.746;2024-03-23T01:43:05;98849.44;;;-2.53;60.61
78986;BME280;68384;55.750;48.746;2024-03-23T01:44:09;98845.16;;;-2.54;60.51
78986;BME280;68384;55.750;48.746;2024-03-23T01:45:11;98850.38;;;-2.55;61.50
78986;BME280;68384;55.750;48.746;2024-03-23T01:46:13;98852.06;;;-2.54;60.88
78986;BME280;68384;55.750;48.746;2024-03-23T01:47:14;98851.25;;;-2.56;60.95
78986;BME280;68384;55.750;48.746;2024-03-23T01:48:16;98842.63;;;-2.57;61.30
78986;BME280;68384;55.750;48.746;2024-03-23T01:49:17;98847.81;;;-2.57;60.95
78986;BME280;68384;55.750;48.746;2024-03-23T01:50:19;98847.00;;;-2.59;61.19
78986;BME280;68384;55.750;48.746;2024-03-23T01:51:21;98847.06;;;-2.62;61.30
78986;BME280;68384;55.750;48.746;2024-03-23T01:52:22;98849.66;;;-2.62;61.35
78986;BME280;68384;55.750;48.746;2024-03-23T01:53:23;98844.47;;;-2.62;60.89
78986;BME280;68384;55.750;48.746;2024-03-23T01:54:25;98854.03;;;-2.64;61.29
78986;BME280;68384;55.750;48.746;2024-03-23T01:55:26;98853.19;;;-2.64;61.33
78986;BME280;68384;55.750;48.746;2024-03-23T01:56:37;98835.88;;;-2.64;61.32
78986;BME280;68384;55.750;48.746;2024-03-23T01:57:38;98851.47;;;-2.65;61.42
78986;BME280;68384;55.750;48.746;2024-03-23T01:58:40;98837.63;;;-2.64;61.49
78986;BME280;68384;55.750;48.746;2024-03-23T01:59:41;98851.47;;;-2.65;61.23
78986;BME280;68384;55.750;48.746;2024-03-23T02:00:45;98844.50;;;-2.63;61.14
78986;BME280;68384;55.750;48.746;2024-03-23T02:01:46;98846.25;;;-2.64;61.23
78986;BME280;68384;55.750;48.746;2024-03-23T02:02:49;98840.22;;;-2.64;61.47
78986;BME280;68384;55.750;48.746;2024-03-23T02:03:50;98840.22;;;-2.64;61.18
78986;BME280;68384;55.750;48.746;2024-03-23T02:04:51;98841.94;;;-2.63;61.39
78986;BME280;68384;55.750;48.746;2024-03-23T02:05:53;98840.19;;;-2.63;61.14
78986;BME280;68384;55.750;48.746;2024-03-23T02:06:55;98842.78;;;-2.63;61.31
78986;BME280;68384;55.750;48.746;2024-03-23T02:07:56;98835.88;;;-2.64;61.09
78986;BME280;68384;55.750;48.746;2024-03-23T02:08:57;98836.72;;;-2.62;61.05
78986;BME280;68384;55.750;48.746;2024-03-23T02:09:58;98835.84;;;-2.62;61.19
78986;BME280;68384;55.750;48.746;2024-03-23T02:11:00;98840.16;;;-2.61;61.44
78986;BME280;68384;55.750;48.746;2024-03-23T02:12:04;98832.41;;;-2.63;61.20
78986;BME280;68384;55.750;48.746;2024-03-23T02:13:06;98830.66;;;-2.62;61.08
78986;BME280;68384;55.750;48.746;2024-03-23T02:14:07;98833.25;;;-2.62;61.29
78986;BME280;68384;55.750;48.746;2024-03-23T02:15:09;98835.00;;;-2.63;61.33
78986;BME280;68384;55.750;48.746;2024-03-23T02:16:10;98835.00;;;-2.63;61.30
78986;BME280;68384;55.750;48.746;2024-03-23T02:17:11;98833.31;;;-2.64;60.89
78986;BME280;68384;55.750;48.746;2024-03-23T02:18:12;98822.09;;;-2.64;61.35
78986;BME280;68384;55.750;48.746;2024-03-23T02:19:13;98835.06;;;-2.66;61.20
78986;BME280;68384;55.750;48.746;2024-03-23T02:20:15;98829.03;;;-2.66;61.48
78986;BME280;68384;55.750;48.746;2024-03-23T02:21:16;98829.03;;;-2.66;61.87
78986;BME280;68384;55.750;48.746;2024-03-23T02:22:17;98824.78;;;-2.67;61.35
78986;BME280;68384;55.750;48.746;2024-03-23T02:23:18;98827.38;;;-2.67;61.33
78986;BME280;68384;55.750;48.746;2024-03-23T02:24:20;98823.97;;;-2.69;61.47
78986;BME280;68384;55.750;48.746;2024-03-23T02:25:21;98824.03;;;-2.72;61.47
78986;BME280;68384;55.750;48.746;2024-03-23T02:26:22;98827.47;;;-2.72;61.16
78986;BME280;68384;55.750;48.746;2024-03-23T02:27:24;98824.06;;;-2.74;61.91
78986;BME280;68384;55.750;48.746;2024-03-23T02:28:25;98826.69;;;-2.76;62.02
78986;BME280;68384;55.750;48.746;2024-03-23T02:29:26;98822.44;;;-2.78;62.19
78986;BME280;68384;55.750;48.746;2024-03-23T02:30:28;98823.28;;;-2.78;62.33
78986;BME280;68384;55.750;48.746;2024-03-23T02:31:29;98821.59;;;-2.79;61.99
78986;BME280;68384;55.750;48.746;2024-03-23T02:32:30;98831.06;;;-2.78;61.87
78986;BME280;68384;55.750;48.746;2024-03-23T02:33:31;98826.81;;;-2.80;61.99
78986;BME280;68384;55.750;48.746;2024-03-23T02:34:33;98822.47;;;-2.80;61.60
78986;BME280;68384;55.750;48.746;2024-03-23T02:35:35;98823.34;;;-2.81;61.91
78986;BME280;68384;55.750;48.746;2024-03-23T02:36:36;98818.19;;;-2.81;62.06
78986;BME280;68384;55.750;48.746;2024-03-23T02:37:37;98825.13;;;-2.83;61.97
78986;BME280;68384;55.750;48.746;2024-03-23T02:38:38;98821.66;;;-2.82;61.95
78986;BME280;68384;55.750;48.746;2024-03-23T02:39:39;98816.47;;;-2.82;61.85
78986;BME280;68384;55.750;48.746;2024-03-23T02:40:41;98816.50;;;-2.83;62.02
78986;BME280;68384;55.750;48.746;2024-03-23T02:41:42;98813.06;;;-2.84;61.52
78986;BME280;68384;55.750;48.746;2024-03-23T02:42:43;98814.78;;;-2.83;61.61
78986;BME280;68384;55.750;48.746;2024-03-23T02:43:44;98810.47;;;-2.84;61.32
78986;BME280;68384;55.750;48.746;2024-03-23T02:44:46;98813.91;;;-2.83;62.19
78986;BME280;68384;55.750;48.746;2024-03-23T02:45:47;98810.44;;;-2.82;61.84
78986;BME280;68384;55.750;48.746;2024-03-23T02:46:49;98815.66;;;-2.84;61.68
78986;BME280;68384;55.750;48.746;2024-03-23T02:47:50;98807.84;;;-2.82;61.46
78986;BME280;68384;55.750;48.746;2024-03-23T02:48:53;98810.41;;;-2.81;61.47
78986;BME280;68384;55.750;48.746;2024-03-23T02:49:54;98806.13;;;-2.82;61.38
78986;BME280;68384;55.750;48.746;2024-03-23T02:50:56;98807.78;;;-2.79;61.65
78986;BME280;68384;55.750;48.746;2024-03-23T02:51:57;98815.50;;;-2.78;61.64
78986;BME280;68384;55.750;48.746;2024-03-23T02:52:58;98805.16;;;-2.78;61.40
78986;BME280;68384;55.750;48.746;2024-03-23T02:53:59;98811.22;;;-2.79;61.34
78986;BME280;68384;55.750;48.746;2024-03-23T02:55:00;98808.56;;;-2.76;61.51
78986;BME280;68384;55.750;48.746;2024-03-23T02:56:03;98804.19;;;-2.73;61.46
78986;BME280;68384;55.750;48.746;2024-03-23T02:57:04;98806.78;;;-2.73;61.05
78986;BME280;68384;55.750;48.746;2024-03-23T02:58:05;98807.63;;;-2.73;61.53
78986;BME280;68384;55.750;48.746;2024-03-23T02:59:06;98807.59;;;-2.71;61.41
78986;BME280;68384;55.750;48.746;2024-03-23T03:00:08;98804.97;;;-2.70;61.10
78986;BME280;68384;55.750;48.746;2024-03-23T03:01:10;98808.44;;;-2.71;61.15
78986;BME280;68384;55.750;48.746;2024-03-23T03:02:13;98813.66;;;-2.72;61.20
78986;BME280;68384;55.750;48.746;2024-03-23T03:03:14;98810.19;;;-2.71;60.96
78986;BME280;68384;55.750;48.746;2024-03-23T03:04:15;98805.81;;;-2.69;61.35
78986;BME280;68384;55.750;48.746;2024-03-23T03:05:16;98808.38;;;-2.68;61.43
78986;BME280;68384;55.750;48.746;2024-03-23T03:06:24;98804.06;;;-2.67;61.08
78986;BME280;68384;55.750;48.746;2024-03-23T03:07:26;98802.34;;;-2.68;61.35
78986;BME280;68384;55.750;48.746;2024-03-23T03:08:27;98798.88;;;-2.67;61.30
78986;BME280;68384;55.750;48.746;2024-03-23T03:09:28;98806.63;;;-2.67;61.16
78986;BME280;68384;55.750;48.746;2024-03-23T03:10:29;98798.00;;;-2.68;60.90
78986;BME280;68384;55.750;48.746;2024-03-23T03:11:31;98802.25;;;-2.65;60.63
78986;BME280;68384;55.750;48.746;2024-03-23T03:12:32;98797.03;;;-2.64;61.07
78986;BME280;68384;55.750;48.746;2024-03-23T03:13:33;98801.28;;;-2.61;61.19
78986;BME280;68384;55.750;48.746;2024-03-23T03:14:35;98797.84;;;-2.62;60.88
78986;BME280;68384;55.750;48.746;2024-03-23T03:15:36;98796.06;;;-2.60;60.43
78986;BME280;68384;55.750;48.746;2024-03-23T03:16:37;98802.09;;;-2.59;60.40
78986;BME280;68384;55.750;48.746;2024-03-23T03:17:38;98796.06;;;-2.60;60.68
78986;BME280;68384;55.750;48.746;2024-03-23T03:18:39;98799.47;;;-2.58;60.40
78986;BME280;68384;55.750;48.746;2024-03-23T03:19:44;98795.94;;;-2.55;60.32
78986;BME280;68384;55.750;48.746;2024-03-23T03:20:46;98790.75;;;-2.55;60.08
78986;BME280;68384;55.750;48.746;2024-03-23T03:21:47;98790.69;;;-2.52;60.11
78986;BME280;68384;55.750;48.746;2024-03-23T03:22:48;98792.38;;;-2.51;60.12
78986;BME280;68384;55.750;48.746;2024-03-23T03:23:50;98795.78;;;-2.49;60.07
78986;BME280;68384;55.750;48.746;2024-03-23T03:24:51;98788.75;;;-2.46;59.61
78986;BME280;68384;55.750;48.746;2024-03-23T03:25:52;98788.66;;;-2.41;59.39
78986;BME280;68384;55.750;48.746;2024-03-23T03:26:53;98785.97;;;-2.38;59.50
78986;BME280;68384;55.750;48.746;2024-03-23T03:27:54;98780.72;;;-2.35;59.59
78986;BME280;68384;55.750;48.746;2024-03-23T03:28:55;98781.56;;;-2.34;59.29
78986;BME280;68384;55.750;48.746;2024-03-23T03:29:57;98784.13;;;-2.33;59.32
78986;BME280;68384;55.750;48.746;2024-03-23T03:31:01;98780.59;;;-2.30;59.22
78986;BME280;68384;55.750;48.746;2024-03-23T03:32:03;98782.34;;;-2.31;58.91
78986;BME280;68384;55.750;48.746;2024-03-23T03:33:04;98779.66;;;-2.29;59.35
78986;BME280;68384;55.750;48.746;2024-03-23T03:34:05;98785.72;;;-2.29;59.50
78986;BME280;68384;55.750;48.746;2024-03-23T03:35:06;98779.66;;;-2.29;59.46
78986;BME280;68384;55.750;48.746;2024-03-23T03:36:08;98778.91;;;-2.31;59.43
78986;BME280;68384;55.750;48.746;2024-03-23T03:37:09;98781.47;;;-2.31;59.03
78986;BME280;68384;55.750;48.746;2024-03-23T03:38:10;98778.91;;;-2.31;59.23
78986;BME280;68384;55.750;48.746;2024-03-23T03:39:11;98783.19;;;-2.30;59.15
78986;BME280;68384;55.750;48.746;2024-03-23T03:40:13;98774.44;;;-2.28;58.77
78986;BME280;68384;55.750;48.746;2024-03-23T03:41:15;98777.06;;;-2.29;58.85
78986;BME280;68384;55.750;48.746;2024-03-23T03:42:17;98778.75;;;-2.27;59.04
78986;BME280;68384;55.750;48.746;2024-03-23T03:43:18;98775.25;;;-2.26;58.83
78986;BME280;68384;55.750;48.746;2024-03-23T03:44:19;98768.31;;;-2.25;59.17
78986;BME280;68384;55.750;48.746;2024-03-23T03:45:20;98769.19;;;-2.25;58.97
78986;BME280;68384;55.750;48.746;2024-03-23T03:46:22;98769.94;;;-2.21;58.90
78986;BME280;68384;55.750;48.746;2024-03-23T03:47:23;98773.31;;;-2.18;58.81
78986;BME280;68384;55.750;48.746;2024-03-23T03:48:25;98769.75;;;-2.14;58.56
78986;BME280;68384;55.750;48.746;2024-03-23T03:49:26;98775.66;;;-2.10;58.43
78986;BME280;68384;55.750;48.746;2024-03-23T03:50:27;98767.84;;;-2.09;58.07
78986;BME280;68384;55.750;48.746;2024-03-23T03:51:28;98765.97;;;-2.03;58.31
78986;BME280;68384;55.750;48.746;2024-03-23T03:52:29;98767.66;;;-2.01;58.15
78986;BME280;68384;55.750;48.746;2024-03-23T03:53:31;98769.25;;;-1.97;58.21
78986;BME280;68384;55.750;48.746;2024-03-23T03:54:33;98769.25;;;-1.97;57.59
78986;BME280;68384;55.750;48.746;2024-03-23T03:55:34;98771.84;;;-1.97;57.72
78986;BME280;68384;55.750;48.746;2024-03-23T03:56:36;98767.53;;;-1.96;57.22
78986;BME280;68384;55.750;48.746;2024-03-23T03:57:37;98770.06;;;-1.95;57.91
78986;BME280;68384;55.750;48.746;2024-03-23T03:58:38;98771.91;;;-1.98;57.70
78986;BME280;68384;55.750;48.746;2024-03-23T03:59:40;98776.19;;;-1.97;58.15
78986;BME280;68384;55.750;48.746;2024-03-23T04:00:41;98769.38;;;-2.01;57.51
78986;BME280;68384;55.750;48.746;2024-03-23T04:01:42;98771.13;;;-2.02;57.76
78986;BME280;68384;55.750;48.746;2024-03-23T04:02:43;98772.06;;;-2.05;58.00
78986;BME280;68384;55.750;48.746;2024-03-23T04:03:45;98764.31;;;-2.06;58.05
78986;BME280;68384;55.750;48.746;2024-03-23T04:04:46;98765.13;;;-2.04;57.99
78986;BME280;68384;55.750;48.746;2024-03-23T04:05:54;98772.09;;;-2.06;57.82
78986;BME280;68384;55.750;48.746;2024-03-23T04:07:02;98776.44;;;-2.07;57.92
78986;BME280;68384;55.750;48.746;2024-03-23T04:08:04;98769.59;;;-2.09;58.25
78986;BME280;68384;55.750;48.746;2024-03-23T04:09:05;98772.22;;;-2.11;58.31
78986;BME280;68384;55.750;48.746;2024-03-23T04:10:07;98773.16;;;-2.12;58.01
78986;BME280;68384;55.750;48.746;2024-03-23T04:11:08;98774.78;;;-2.09;57.78
78986;BME280;68384;55.750;48.746;2024-03-23T04:12:10;98773.88;;;-2.08;57.52
78986;BME280;68384;55.750;48.746;2024-03-23T04:13:14;98766.88;;;-2.05;57.88
78986;BME280;68384;55.750;48.746;2024-03-23T04:14:15;98777.22;;;-2.03;57.93
78986;BME280;68384;55.750;48.746;2024-03-23T04:15:17;98763.44;;;-2.05;57.43
78986;BME280;68384;55.750;48.746;2024-03-23T04:16:26;98771.16;;;-2.03;57.69
78986;BME280;68384;55.750;48.746;2024-03-23T04:17:28;98766.84;;;-2.03;57.53
78986;BME280;68384;55.750;48.746;2024-03-23T04:18:32;98769.38;;;-2.01;57.67
78986;BME280;68384;55.750;48.746;2024-03-23T04:19:33;98767.66;;;-2.01;57.70
78986;BME280;68384;55.750;48.746;2024-03-23T04:20:35;98768.44;;;-1.99;57.78
78986;BME280;68384;55.750;48.746;2024-03-23T04:21:37;98768.44;;;-1.99;57.22
78986;BME280;68384;55.750;48.746;2024-03-23T04:22:38;98767.56;;;-1.98;57.16
78986;BME280;68384;55.750;48.746;2024-03-23T04:23:40;98764.97;;;-1.98;57.28
78986;BME280;68384;55.750;48.746;2024-03-23T04:24:41;98765.72;;;-1.94;57.17
78986;BME280;68384;55.750;48.746;2024-03-23T04:25:43;98769.09;;;-1.92;57.05
78986;BME280;68384;55.750;48.746;2024-03-23T04:26:44;98766.50;;;-1.92;56.76
78986;BME280;68384;55.750;48.746;2024-03-23T04:27:46;98763.78;;;-1.88;56.95
78986;BME280;68384;55.750;48.746;2024-03-23T04:28:48;98765.44;;;-1.85;56.77
78986;BME280;68384;55.750;48.746;2024-03-23T04:29:50;98763.56;;;-1.80;56.56
78986;BME280;68384;55.750;48.746;2024-03-23T04:30:51;98766.97;;;-1.78;56.49
78986;BME280;68384;55.750;48.746;2024-03-23T04:31:52;98760.00;;;-1.76;56.34
78986;BME280;68384;55.750;48.746;2024-03-23T04:32:53;98765.16;;;-1.75;56.19
78986;BME280;68384;55.750;48.746;2024-03-23T04:33:55;98758.19;;;-1.74;56.23
78986;BME280;68384;55.750;48.746;2024-03-23T04:34:56;98754.59;;;-1.70;55.94
78986;BME280;68384;55.750;48.746;2024-03-23T04:35:57;98757.16;;;-1.68;56.04
78986;BME280;68384;55.750;48.746;2024-03-23T04:36:59;98757.13;;;-1.67;55.98
78986;BME280;68384;55.750;48.746;2024-03-23T04:38:00;98756.19;;;-1.64;55.65
78986;BME280;68384;55.750;48.746;2024-03-23T04:39:01;98751.78;;;-1.62;55.64
78986;BME280;68384;55.750;48.746;2024-03-23T04:40:03;98761.22;;;-1.60;55.61
78986;BME280;68384;55.750;48.746;2024-03-23T04:41:05;98750.81;;;-1.58;55.29
78986;BME280;68384;55.750;48.746;2024-03-23T04:42:06;98757.69;;;-1.57;55.31
78986;BME280;68384;55.750;48.746;2024-03-23T04:43:08;98757.53;;;-1.53;55.76
78986;BME280;68384;55.750;48.746;2024-03-23T04:44:09;98755.78;;;-1.52;55.22
78986;BME280;68384;55.750;48.746;2024-03-23T04:45:11;98758.28;;;-1.49;55.36
78986;BME280;68384;55.750;48.746;2024-03-23T04:46:12;98756.50;;;-1.47;55.09
78986;BME280;68384;55.750;48.746;2024-03-23T04:47:13;98760.75;;;-1.45;54.72
78986;BME280;68384;55.750;48.746;2024-03-23T04:48:14;98755.56;;;-1.45;55.18
78986;BME280;68384;55.750;48.746;2024-03-23T04:49:15;98753.84;;;-1.46;54.94
78986;BME280;68384;55.750;48.746;2024-03-23T04:50:16;98750.38;;;-1.45;54.92
78986;BME280;68384;55.750;48.746;2024-03-23T04:51:21;98752.88;;;-1.42;55.12
78986;BME280;68384;55.750;48.746;2024-03-23T04:52:22;98754.47;;;-1.38;54.76
78986;BME280;68384;55.750;48.746;2024-03-23T04:53:24;98754.31;;;-1.33;54.20
78986;BME280;68384;55.750;48.746;2024-03-23T04:54:30;98749.03;;;-1.30;54.60
78986;BME280;68384;55.750;48.746;2024-03-23T04:55:33;98747.25;;;-1.28;54.21
78986;BME280;68384;55.750;48.746;2024-03-23T04:56:34;98747.09;;;-1.23;54.08
78986;BME280;68384;55.750;48.746;2024-03-23T04:57:37;98749.69;;;-1.23;54.23
78986;BME280;68384;55.750;48.746;2024-03-23T04:58:39;98739.25;;;-1.22;54.31
78986;BME280;68384;55.750;48.746;2024-03-23T04:59:41;98744.28;;;-1.17;54.25
78986;BME280;68384;55.750;48.746;2024-03-23T05:00:42;98743.34;;;-1.15;53.84
78986;BME280;68384;55.750;48.746;2024-03-23T05:01:47;98742.34;;;-1.11;53.53
78986;BME280;68384;55.750;48.746;2024-03-23T05:02:48;98749.19;;;-1.08;53.31
78986;BME280;68384;55.750;48.746;2024-03-23T05:03:49;98742.94;;;-1.03;53.77
78986;BME280;68384;55.750;48.746;2024-03-23T05:04:51;98739.47;;;-1.02;53.40
78986;BME280;68384;55.750;48.746;2024-03-23T05:05:52;98743.81;;;-1.02;53.12
78986;BME280;68384;55.750;48.746;2024-03-23T05:06:54;98736.81;;;-1.00;53.16
78986;BME280;68384;55.750;48.746;2024-03-23T05:07:55;98741.91;;;-0.98;53.09
78986;BME280;68384;55.750;48.746;2024-03-23T05:08:56;98742.78;;;-0.98;53.14
78986;BME280;68384;55.750;48.746;2024-03-23T05:09:57;98738.38;;;-0.96;53.39
78986;BME280;68384;55.750;48.746;2024-03-23T05:10:58;98736.59;;;-0.94;53.29
78986;BME280;68384;55.750;48.746;2024-03-23T05:12:00;98741.72;;;-0.92;52.84
78986;BME280;68384;55.750;48.746;2024-03-23T05:13:01;98733.09;;;-0.93;53.08
78986;BME280;68384;55.750;48.746;2024-03-23T05:14:02;98736.59;;;-0.94;53.27
78986;BME280;68384;55.750;48.746;2024-03-23T05:15:05;98737.44;;;-0.93;52.94
78986;BME280;68384;55.750;48.746;2024-03-23T05:16:06;98732.28;;;-0.95;52.69
78986;BME280;68384;55.750;48.746;2024-03-23T05:17:07;98735.63;;;-0.91;53.15
78986;BME280;68384;55.750;48.746;2024-03-23T05:18:09;98731.25;;;-0.89;53.24
78986;BME280;68384;55.750;48.746;2024-03-23T05:19:10;98731.09;;;-0.85;52.99
78986;BME280;68384;55.750;48.746;2024-03-23T05:20:11;98731.94;;;-0.84;52.61
78986;BME280;68384;55.750;48.746;2024-03-23T05:21:13;98732.66;;;-0.81;52.39
78986;BME280;68384;55.750;48.746;2024-03-23T05:22:14;98737.84;;;-0.81;52.51
78986;BME280;68384;55.750;48.746;2024-03-23T05:23:15;98732.75;;;-0.82;52.37
78986;BME280;68384;55.750;48.746;2024-03-23T05:24:16;98727.41;;;-0.79;52.46
78986;BME280;68384;55.750;48.746;2024-03-23T05:25:18;98720.38;;;-0.76;52.54
78986;BME280;68384;55.750;48.746;2024-03-23T05:26:19;98731.56;;;-0.74;52.57
78986;BME280;68384;55.750;48.746;2024-03-23T05:27:20;98723.72;;;-0.72;52.36
78986;BME280;68384;55.750;48.746;2024-03-23T05:28:22;98727.06;;;-0.69;52.10
78986;BME280;68384;55.750;48.746;2024-03-23T05:29:23;98719.22;;;-0.67;52.11
78986;BME280;68384;55.750;48.746;2024-03-23T05:30:24;98722.59;;;-0.65;51.82
78986;BME280;68384;55.750;48.746;2024-03-23T05:31:27;98718.13;;;-0.61;51.73
78986;BME280;68384;55.750;48.746;2024-03-23T05:32:28;98718.97;;;-0.61;52.08
78986;BME280;68384;55.750;48.746;2024-03-23T05:33:29;98719.72;;;-0.57;51.93
78986;BME280;68384;55.750;48.746;2024-03-23T05:34:30;98717.81;;;-0.52;51.68
78986;BME280;68384;55.750;48.746;2024-03-23T05:35:31;98711.59;;;-0.48;51.39
78986;BME280;68384;55.750;48.746;2024-03-23T05:36:32;98721.78;;;-0.42;51.31
78986;BME280;68384;55.750;48.746;2024-03-23T05:37:34;98720.59;;;-0.34;50.82
78986;BME280;68384;55.750;48.746;2024-03-23T05:38:35;98708.34;;;-0.30;50.63
78986;BME280;68384;55.750;48.746;2024-03-23T05:39:36;98710.63;;;-0.22;50.48
78986;BME280;68384;55.750;48.746;2024-03-23T05:40:37;98720.09;;;-0.20;50.12
78986;BME280;68384;55.750;48.746;2024-03-23T05:41:41;98708.84;;;-0.20;50.41
78986;BME280;68384;55.750;48.746;2024-03-23T05:42:42;98714.78;;;-0.17;50.39
78986;BME280;68384;55.750;48.746;2024-03-23T05:43:43;98706.75;;;-0.11;50.22
78986;BME280;68384;55.750;48.746;2024-03-23T05:44:45;98711.91;;;-0.09;50.04
78986;BME280;68384;55.750;48.746;2024-03-23T05:45:53;98708.31;;;-0.07;49.59
78986;BME280;68384;55.750;48.746;2024-03-23T05:46:54;98709.06;;;-0.03;49.49
78986;BME280;68384;55.750;48.746;2024-03-23T05:47:56;98707.19;;;0.00;49.82
78986;BME280;68384;55.750;48.746;2024-03-23T05:49:01;98709.84;;;-0.01;49.24
78986;BME280;68384;55.750;48.746;2024-03-23T05:50:03;98707.25;;;-0.01;49.59
78986;BME280;68384;55.750;48.746;2024-03-23T05:51:04;98707.97;;;0.02;49.05
78986;BME280;68384;55.750;48.746;2024-03-23T05:52:05;98702.72;;;0.04;49.22
78986;BME280;68384;55.750;48.746;2024-03-23T05:53:06;98699.28;;;0.03;48.99
78986;BME280;68384;55.750;48.746;2024-03-23T05:54:09;98697.56;;;0.02;49.41
78986;BME280;68384;55.750;48.746;2024-03-23T05:55:10;98696.63;;;0.05;48.94
78986;BME280;68384;55.750;48.746;2024-03-23T05:56:11;98700.97;;;0.04;49.36
78986;BME280;68384;55.750;48.746;2024-03-23T05:57:13;98693.09;;;0.06;48.82
78986;BME280;68384;55.750;48.746;2024-03-23T05:58:15;98683.66;;;0.03;48.83
78986;BME280;68384;55.750;48.746;2024-03-23T05:59:16;98687.97;;;0.04;48.74
78986;BME280;68384;55.750;48.746;2024-03-23T06:00:18;98694.88;;;0.06;48.22
78986;BME280;68384;55.750;48.746;2024-03-23T06:01:19;98689.75;;;0.02;49.08
78986;BME280;68384;55.750;48.746;2024-03-23T06:02:20;98702.84;;;0.01;48.43
78986;BME280;68384;55.750;48.746;2024-03-23T06:03:21;98682.97;;;-0.02;48.51
78986;BME280;68384;55.750;48.746;2024-03-23T06:04:22;98688.88;;;0.03;49.05
78986;BME280;68384;55.750;48.746;2024-03-23T06:05:24;98698.53;;;-0.00;48.63
78986;BME280;68384;55.750;48.746;2024-03-23T06:06:25;98689.13;;;-0.04;48.47
78986;BME280;68384;55.750;48.746;2024-03-23T06:07:26;98688.28;;;-0.05;48.79
78986;BME280;68384;55.750;48.746;2024-03-23T06:08:28;98689.09;;;-0.03;48.69
78986;BME280;68384;55.750;48.746;2024-03-23T06:09:29;98688.25;;;-0.03;48.71
78986;BME280;68384;55.750;48.746;2024-03-23T06:10:32;98692.59;;;-0.04;48.30
78986;BME280;68384;55.750;48.746;2024-03-23T06:11:33;98696.00;;;-0.02;48.10
78986;BME280;68384;55.750;48.746;2024-03-23T06:12:34;98695.19;;;-0.04;47.98
78986;BME280;68384;55.750;48.746;2024-03-23T06:13:35;98692.66;;;-0.05;48.67
78986;BME280;68384;55.750;48.746;2024-03-23T06:14:36;98690.00;;;-0.04;48.24